NLWW

Details ICAO NLWW (WLS)
Name WALLIS
Region Wallis and Futuna
Timezone Unknown (UTC+0.0)
Plans Departing 9
Arriving 9
Stats Elevation 79 ft / 24 m (AMSL)
Location -13.238320° -176.199267°
Runways 1
Magnetic Variation 11.524° E
Sunrise 2017-12-11 17:13:00 UTC / 2017-12-11 17:13:00 Local
Sunset 2017-12-12 06:06:27 UTC / 2017-12-12 06:06:27 Local
Advertisement - Login to hide

Runways

ID Width Length Bearing (true) Bearing (mag) Surface Threshold Offset Overrun Length
08 148 ft / 45 m 6,895 ft / 2,102 m 89.90° 78.38° Asphalt 0 ft / 0 m 0 ft / 0 m
26 148 ft / 45 m 6,895 ft / 2,102 m 269.90° 258.38° Asphalt 0 ft / 0 m 0 ft / 0 m

Map

Weather


0- 5 10 15 20 25 30 35+ Temperature / ° C

Clouds and Precipitation
Forecast for 2017-12-11 12:00 UTC. Updated 18 minutes ago

Ground ~20,000 ft ~40,000 ft Winds

METAR

Not found

TAF

TAF NLWW 110500Z 1106/1206 16005KT 9999 SCT030 PROB30 1203/1206 SHRA SCT030TCU

Frequencies

Tower 118.30 MHz INFO
Warning: Do not use this data for real-world aviation or navigation. No guarantee of current accuracy is given.